createdAt,value
2018-05-25T00:00:29.590Z,13.80
2018-05-25T00:02:58.699Z,13.80
2018-05-25T00:05:30.369Z,13.70
2018-05-25T00:08:03.242Z,13.70
2018-05-25T00:10:36.053Z,13.60
2018-05-25T00:13:08.147Z,13.50
2018-05-25T00:15:38.134Z,13.50
2018-05-25T00:18:09.645Z,13.50
2018-05-25T00:20:39.899Z,13.50
2018-05-25T00:23:10.442Z,13.50
2018-05-25T00:25:47.003Z,13.40
2018-05-25T00:28:19.025Z,13.50
2018-05-25T00:30:48.664Z,13.40
2018-05-25T00:33:17.456Z,13.40
2018-05-25T00:35:47.811Z,13.40
2018-05-25T00:38:18.046Z,13.40
2018-05-25T00:40:47.757Z,13.40
2018-05-25T00:43:16.155Z,13.30
2018-05-25T00:45:44.533Z,13.30
2018-05-25T00:48:13.997Z,13.30
2018-05-25T00:50:50.653Z,13.40
2018-05-25T00:53:21.135Z,13.40
2018-05-25T00:55:52.286Z,13.40
2018-05-25T00:58:20.716Z,13.50
2018-05-25T01:00:50.148Z,13.50
2018-05-25T01:03:18.536Z,13.50
2018-05-25T01:05:46.943Z,13.50
2018-05-25T01:08:15.321Z,13.60
2018-05-25T01:10:43.753Z,13.60
2018-05-25T01:13:12.332Z,13.60
2018-05-25T01:15:40.754Z,13.60
2018-05-25T01:18:09.158Z,13.60
2018-05-25T01:20:37.540Z,13.60
2018-05-25T01:23:06.196Z,13.50
2018-05-25T01:25:35.093Z,13.50
2018-05-25T01:28:03.501Z,13.50
2018-05-25T01:30:32.689Z,13.40
2018-05-25T01:33:02.303Z,13.40
2018-05-25T01:35:31.218Z,13.40
2018-05-25T01:38:00.833Z,13.30
2018-05-25T01:40:29.209Z,13.30
2018-05-25T01:42:57.608Z,13.30
2018-05-25T01:45:25.993Z,13.30
2018-05-25T01:47:54.577Z,13.30
2018-05-25T01:50:23.021Z,13.30
2018-05-25T01:52:52.851Z,13.20
2018-05-25T01:55:21.617Z,13.20
2018-05-25T01:57:51.080Z,13.20
2018-05-25T02:00:19.642Z,13.10
2018-05-25T02:02:48.040Z,13.10
2018-05-25T02:05:16.443Z,13.10
2018-05-25T02:07:44.849Z,13.10
2018-05-25T02:10:13.224Z,13.10
2018-05-25T02:12:41.848Z,13.10
2018-05-25T02:15:12.623Z,13.00
2018-05-25T02:17:42.070Z,13.10
2018-05-25T02:20:11.528Z,13.10
2018-05-25T02:22:39.904Z,13.10
2018-05-25T02:25:08.394Z,13.00
2018-05-25T02:27:37.718Z,13.00
2018-05-25T02:30:06.873Z,13.00
2018-05-25T02:32:37.664Z,13.00
2018-05-25T02:35:08.305Z,13.00
2018-05-25T02:37:37.549Z,13.00
2018-05-25T02:40:06.714Z,12.90
2018-05-25T02:42:35.121Z,12.90
2018-05-25T02:45:03.881Z,12.90
2018-05-25T02:47:32.976Z,12.80
2018-05-25T02:50:03.348Z,12.80
2018-05-25T02:52:31.789Z,12.80
2018-05-25T02:55:00.192Z,12.80
2018-05-25T02:57:28.569Z,12.70
2018-05-25T02:59:56.968Z,12.70
2018-05-25T03:02:26.127Z,12.70
2018-05-25T03:04:54.796Z,12.60
2018-05-25T03:07:23.175Z,12.70
2018-05-25T03:09:51.562Z,12.60
2018-05-25T03:12:19.949Z,12.60
2018-05-25T03:14:48.341Z,12.60
2018-05-25T03:17:16.879Z,12.60
2018-05-25T03:19:45.256Z,12.60
2018-05-25T03:22:13.636Z,12.60
2018-05-25T03:24:42.165Z,12.60
2018-05-25T03:27:10.539Z,12.60
2018-05-25T03:29:39.086Z,12.50
2018-05-25T03:32:07.470Z,12.50
2018-05-25T03:34:35.842Z,12.40
2018-05-25T03:37:04.251Z,12.30
2018-05-25T03:39:32.627Z,12.30
2018-05-25T03:42:01.186Z,12.30
2018-05-25T03:44:29.564Z,12.20
2018-05-25T03:46:57.937Z,12.30
2018-05-25T03:49:26.328Z,12.20
2018-05-25T03:51:54.705Z,12.30
2018-05-25T03:54:23.281Z,12.30
2018-05-25T03:56:51.654Z,12.30
2018-05-25T03:59:38.033Z,12.40
2018-05-25T04:02:06.609Z,12.40
2018-05-25T04:04:34.981Z,12.40
2018-05-25T04:07:03.380Z,12.40
2018-05-25T04:09:31.773Z,12.40
2018-05-25T04:12:01.841Z,12.50
2018-05-25T04:14:30.984Z,12.50
2018-05-25T04:16:59.363Z,12.50
2018-05-25T04:19:27.761Z,12.50
2018-05-25T04:21:56.193Z,12.50
2018-05-25T04:24:25.023Z,12.60
2018-05-25T04:26:55.928Z,12.70
2018-05-25T04:32:07.806Z,12.70
2018-05-25T04:34:38.162Z,12.80
2018-05-25T04:37:07.977Z,12.90
2018-05-25T04:39:36.453Z,12.90
2018-05-25T04:42:04.854Z,13.00
2018-05-25T04:44:33.232Z,13.10
2018-05-25T04:47:01.649Z,13.10
2018-05-25T04:49:30.967Z,13.20
2018-05-25T04:52:00.110Z,13.30
2018-05-25T04:54:28.509Z,13.20
2018-05-25T04:56:56.888Z,13.30
2018-05-25T04:59:25.441Z,13.40
2018-05-25T05:01:53.837Z,13.60
2018-05-25T05:04:22.217Z,13.70
2018-05-25T05:06:50.614Z,13.70
2018-05-25T05:09:20.305Z,13.80
2018-05-25T05:11:50.417Z,14.00
2018-05-25T05:14:21.057Z,13.90
2018-05-25T05:16:49.464Z,14.10
2018-05-25T05:19:17.868Z,14.20
2018-05-25T05:21:46.248Z,14.20
2018-05-25T05:24:14.654Z,14.20
2018-05-25T05:26:43.033Z,14.30
2018-05-25T05:29:11.612Z,14.40
2018-05-25T05:31:39.993Z,14.50
2018-05-25T05:34:08.372Z,14.60
2018-05-25T05:36:36.779Z,14.70
2018-05-25T05:39:05.964Z,14.90
2018-05-25T05:41:34.408Z,15.00
2018-05-25T05:44:02.788Z,15.10
2018-05-25T05:46:31.169Z,15.20
2018-05-25T05:48:59.573Z,15.30
2018-05-25T05:51:27.973Z,15.30
2018-05-25T05:53:56.398Z,15.40
2018-05-25T05:56:24.785Z,15.50
2018-05-25T05:58:53.176Z,15.60
2018-05-25T06:01:21.581Z,15.70
2018-05-25T06:03:49.988Z,15.80
2018-05-25T06:06:19.345Z,16.00
2018-05-25T06:08:47.742Z,16.00
2018-05-25T06:11:16.128Z,16.10
2018-05-25T06:13:44.551Z,16.20
2018-05-25T06:16:12.961Z,16.30
2018-05-25T06:18:41.457Z,16.30
2018-05-25T06:21:09.848Z,16.40
2018-05-25T06:23:38.244Z,16.40
2018-05-25T06:26:07.425Z,16.60
2018-05-25T06:28:36.817Z,16.60
2018-05-25T06:31:05.501Z,16.60
2018-05-25T06:33:33.904Z,16.70
2018-05-25T06:36:03.053Z,16.90
2018-05-25T06:38:31.481Z,16.90
2018-05-25T06:41:00.646Z,17.00
2018-05-25T06:43:30.723Z,17.00
2018-05-25T06:45:59.240Z,17.00
2018-05-25T06:48:27.631Z,17.00
2018-05-25T06:50:56.041Z,17.10
2018-05-25T06:53:25.193Z,17.10
2018-05-25T06:55:53.773Z,17.10
2018-05-25T06:58:22.158Z,17.30
2018-05-25T07:00:50.544Z,17.40
2018-05-25T07:03:18.948Z,17.50
2018-05-25T07:05:47.333Z,17.70
2018-05-25T07:08:16.783Z,18.20
2018-05-25T07:10:45.176Z,18.10
2018-05-25T07:13:13.588Z,18.40
2018-05-25T07:15:41.994Z,18.60
2018-05-25T07:18:10.379Z,18.80
2018-05-25T07:20:38.801Z,19.00
2018-05-25T07:23:07.180Z,19.20
2018-05-25T07:25:35.559Z,19.20
2018-05-25T07:28:03.982Z,19.50
2018-05-25T07:30:32.352Z,19.70
2018-05-25T07:33:01.634Z,20.10
2018-05-25T07:35:30.780Z,20.20
2018-05-25T07:37:59.167Z,20.10
2018-05-25T07:40:27.589Z,20.20
2018-05-25T07:42:55.969Z,20.20
2018-05-25T07:45:24.377Z,20.20
2018-05-25T07:47:52.768Z,20.10
2018-05-25T07:50:21.166Z,20.10
2018-05-25T07:52:49.632Z,20.00
2018-05-25T07:55:18.017Z,20.10
2018-05-25T07:57:46.448Z,20.10
2018-05-25T08:00:15.597Z,20.30
2018-05-25T08:02:44.027Z,20.30
2018-05-25T08:05:13.188Z,20.80
2018-05-25T08:07:41.565Z,20.70
2018-05-25T08:10:10.332Z,21.00
2018-05-25T08:12:38.722Z,21.20
2018-05-25T08:15:07.095Z,21.30
2018-05-25T08:17:35.489Z,21.70
2018-05-25T08:20:03.884Z,21.90
2018-05-25T08:22:32.432Z,22.20
2018-05-25T08:25:00.836Z,22.40
2018-05-25T08:27:29.213Z,22.60
2018-05-25T08:29:57.763Z,22.70
2018-05-25T08:32:26.137Z,22.90
2018-05-25T08:34:54.566Z,23.00
2018-05-25T08:37:24.445Z,23.50
2018-05-25T08:39:52.820Z,23.50
2018-05-25T08:42:21.293Z,23.70
2018-05-25T08:44:49.750Z,23.80
2018-05-25T08:47:19.285Z,24.20
2018-05-25T08:52:20.225Z,24.40
2018-05-25T08:54:48.621Z,24.60
2018-05-25T08:57:17.001Z,24.70
2018-05-25T08:59:45.411Z,24.90
2018-05-25T09:02:14.717Z,25.10
2018-05-25T09:04:43.606Z,25.40
2018-05-25T09:07:13.001Z,25.30
2018-05-25T09:09:41.638Z,25.20
2018-05-25T09:12:10.125Z,25.60
2018-05-25T09:14:38.604Z,25.70
2018-05-25T09:17:07.737Z,26.00
2018-05-25T09:19:36.313Z,26.00
2018-05-25T09:22:04.902Z,26.10
2018-05-25T09:24:34.158Z,26.50
2018-05-25T09:27:02.565Z,26.70
2018-05-25T09:29:31.144Z,26.80
2018-05-25T09:31:59.524Z,27.10
2018-05-25T09:34:27.955Z,27.40
2018-05-25T09:36:57.123Z,28.00
2018-05-25T09:39:25.496Z,28.00
2018-05-25T09:41:54.290Z,28.30
2018-05-25T09:44:23.157Z,28.60
2018-05-25T09:46:52.149Z,28.70
2018-05-25T09:49:20.884Z,28.60
2018-05-25T09:51:50.033Z,28.70
2018-05-25T09:54:18.752Z,28.60
2018-05-25T09:57:00.489Z,29.00
2018-05-25T09:59:29.575Z,29.20
2018-05-25T10:01:58.128Z,29.20
2018-05-25T10:04:27.356Z,29.60
2018-05-25T10:06:55.886Z,29.50
2018-05-25T10:09:24.264Z,29.60
2018-05-25T10:11:52.672Z,29.50
2018-05-25T10:14:21.836Z,29.30
2018-05-25T10:16:50.217Z,29.30
2018-05-25T10:19:18.623Z,28.80
2018-05-25T10:21:47.765Z,28.50
2018-05-25T10:24:16.359Z,28.50
2018-05-25T10:26:44.733Z,28.70
2018-05-25T10:29:13.136Z,29.00
2018-05-25T10:31:48.688Z,29.30
2018-05-25T10:34:22.368Z,29.60
2018-05-25T10:36:50.750Z,29.90
2018-05-25T10:39:19.120Z,30.10
2018-05-25T10:41:47.519Z,30.00
2018-05-25T10:44:15.899Z,30.30
2018-05-25T10:46:44.313Z,30.70
2018-05-25T10:49:13.450Z,31.10
2018-05-25T10:51:41.909Z,31.10
2018-05-25T10:54:10.312Z,31.20
2018-05-25T10:56:38.690Z,31.20
2018-05-25T10:59:08.195Z,31.50
2018-05-25T11:01:36.651Z,31.80
2018-05-25T11:04:05.778Z,32.00
2018-05-25T11:06:34.190Z,32.00
2018-05-25T11:09:02.582Z,31.90
2018-05-25T11:11:31.206Z,32.20
2018-05-25T11:13:59.580Z,32.00
2018-05-25T11:16:27.963Z,31.40
2018-05-25T11:18:56.364Z,31.30
2018-05-25T11:21:24.740Z,31.40
2018-05-25T11:23:53.409Z,31.70
2018-05-25T11:26:21.787Z,31.90
2018-05-25T11:28:50.166Z,32.10
2018-05-25T11:31:18.543Z,32.20
2018-05-25T11:33:47.224Z,32.40
2018-05-25T11:36:15.853Z,32.30
2018-05-25T11:38:44.227Z,32.70
2018-05-25T11:41:12.601Z,32.70
2018-05-25T11:43:41.008Z,32.80
2018-05-25T11:46:10.140Z,32.40
2018-05-25T11:48:38.585Z,32.30
2018-05-25T11:51:07.735Z,32.70
2018-05-25T11:53:36.117Z,32.70
2018-05-25T11:56:04.517Z,33.00
2018-05-25T11:58:32.895Z,33.10
2018-05-25T12:01:01.489Z,32.70
2018-05-25T12:03:29.905Z,32.50
2018-05-25T12:05:58.300Z,32.30
2018-05-25T12:08:26.686Z,32.30
2018-05-25T12:10:55.088Z,32.40
2018-05-25T12:13:23.637Z,32.80
2018-05-25T12:15:52.030Z,32.80
2018-05-25T12:18:20.405Z,32.70
2018-05-25T12:20:48.832Z,32.50
2018-05-25T12:23:17.976Z,32.50
2018-05-25T12:25:46.561Z,32.50
2018-05-25T12:28:14.936Z,32.30
2018-05-25T12:30:43.316Z,32.30
2018-05-25T12:33:11.713Z,32.30
2018-05-25T12:35:40.891Z,32.30
2018-05-25T12:38:09.321Z,32.40
2018-05-25T12:40:38.466Z,32.20
2018-05-25T12:43:07.344Z,32.20
2018-05-25T12:45:35.754Z,32.10
2018-05-25T12:48:04.422Z,32.00
2018-05-25T12:50:33.093Z,31.70
2018-05-25T12:53:01.498Z,31.30
2018-05-25T12:55:29.877Z,31.40
2018-05-25T12:57:58.273Z,31.60
2018-05-25T13:00:26.649Z,31.90
2018-05-25T13:02:55.228Z,32.20
2018-05-25T13:05:23.600Z,32.70
2018-05-25T13:07:52.159Z,33.20
2018-05-25T13:10:20.553Z,33.60
2018-05-25T13:12:48.932Z,33.90
2018-05-25T13:15:17.700Z,34.20
2018-05-25T13:17:46.081Z,34.20
2018-05-25T13:20:14.453Z,34.60
2018-05-25T13:22:42.844Z,34.90
2018-05-25T13:25:11.221Z,35.10
2018-05-25T13:27:40.426Z,35.00
2018-05-25T13:30:08.813Z,35.00
2018-05-25T13:32:37.187Z,34.30
2018-05-25T13:35:05.589Z,34.00
2018-05-25T13:37:33.982Z,34.10
2018-05-25T13:40:03.174Z,34.40
2018-05-25T13:42:31.612Z,34.40
2018-05-25T13:44:59.984Z,34.50
2018-05-25T13:47:28.367Z,34.40
2018-05-25T13:49:56.736Z,33.80
2018-05-25T13:52:25.157Z,33.20
2018-05-25T13:54:53.524Z,32.50
2018-05-25T13:57:21.893Z,32.10
2018-05-25T13:59:50.285Z,31.80
2018-05-25T14:02:18.653Z,31.70
2018-05-25T14:04:47.418Z,31.40
2018-05-25T14:07:15.797Z,30.90
2018-05-25T14:09:44.177Z,30.30
2018-05-25T14:12:12.577Z,29.60
2018-05-25T14:14:40.968Z,29.00
2018-05-25T14:17:09.384Z,28.80
2018-05-25T14:19:37.760Z,28.60
2018-05-25T14:22:06.152Z,28.60
2018-05-25T14:24:34.548Z,28.50
2018-05-25T14:27:03.591Z,28.40
2018-05-25T14:29:32.942Z,28.40
2018-05-25T14:32:01.430Z,28.30
2018-05-25T14:34:32.768Z,28.20
2018-05-25T14:37:03.294Z,28.20
2018-05-25T14:39:34.967Z,28.20
2018-05-25T14:42:05.564Z,28.20
2018-05-25T14:44:37.240Z,28.20
2018-05-25T14:47:15.514Z,28.30
2018-05-25T14:49:45.787Z,28.20
2018-05-25T14:52:16.110Z,28.20
2018-05-25T14:54:45.509Z,28.10
2018-05-25T14:57:14.157Z,28.00
2018-05-25T14:59:43.157Z,27.20
2018-05-25T15:02:12.636Z,26.60
2018-05-25T15:04:44.370Z,26.00
2018-05-25T15:07:16.514Z,25.20
2018-05-25T15:09:48.734Z,24.90
2018-05-25T15:12:19.064Z,24.50
2018-05-25T15:14:48.435Z,24.50
2018-05-25T15:17:17.830Z,24.10
2018-05-25T15:19:52.843Z,24.20
2018-05-25T15:22:22.628Z,24.20
2018-05-25T15:24:52.285Z,24.20
2018-05-25T15:27:31.025Z,24.20
2018-05-25T15:30:04.903Z,24.10
2018-05-25T15:32:35.181Z,23.90
2018-05-25T15:35:05.529Z,23.80
2018-05-25T15:37:34.330Z,23.80
2018-05-25T15:40:03.923Z,23.60
2018-05-25T15:42:33.773Z,23.60
2018-05-25T15:45:03.572Z,23.70
2018-05-25T15:47:32.986Z,23.70
2018-05-25T15:50:02.297Z,23.60
2018-05-25T15:52:32.289Z,23.60
2018-05-25T15:55:02.013Z,23.50
2018-05-25T15:57:32.213Z,23.40
2018-05-25T16:00:02.211Z,23.20
2018-05-25T16:02:32.179Z,23.20
2018-05-25T16:05:01.614Z,23.20
2018-05-25T16:07:31.467Z,23.30
2018-05-25T16:10:01.430Z,23.40
2018-05-25T16:12:31.802Z,23.60
2018-05-25T16:15:02.416Z,23.60
2018-05-25T16:17:32.866Z,23.60
2018-05-25T16:20:23.527Z,23.60
2018-05-25T16:23:13.362Z,23.60
2018-05-25T16:26:04.368Z,23.60
2018-05-25T16:28:33.757Z,23.60
2018-05-25T16:31:02.172Z,23.60
2018-05-25T16:33:41.373Z,23.40
2018-05-25T16:36:29.635Z,23.40
2018-05-25T16:39:17.096Z,23.40
2018-05-25T16:42:08.420Z,23.20
2018-05-25T16:44:40.086Z,23.10
2018-05-25T16:47:12.992Z,23.10
2018-05-25T16:49:49.031Z,22.90
2018-05-25T16:52:18.917Z,22.80
2018-05-25T16:54:47.929Z,22.70
2018-05-25T16:57:17.591Z,22.50
2018-05-25T16:59:46.890Z,22.20
2018-05-25T17:02:16.037Z,22.20
2018-05-25T17:04:46.792Z,22.10
2018-05-25T17:07:17.043Z,22.10
2018-05-25T17:09:47.877Z,21.90
2018-05-25T17:12:18.180Z,21.80
2018-05-25T17:14:47.951Z,21.70
2018-05-25T17:17:17.647Z,21.70
2018-05-25T17:19:47.641Z,21.60
2018-05-25T17:22:43.227Z,21.40
2018-05-25T17:25:41.805Z,21.40
2018-05-25T17:31:12.630Z,21.10
2018-05-25T17:33:41.321Z,21.10
2018-05-25T17:36:24.193Z,21.00
2018-05-25T17:38:59.639Z,20.90
2018-05-25T17:41:28.812Z,20.80
2018-05-25T17:43:58.111Z,20.80
2018-05-25T17:46:27.508Z,20.70
2018-05-25T17:48:58.168Z,20.70
2018-05-25T17:51:28.279Z,20.60
2018-05-25T17:53:57.988Z,20.60
2018-05-25T17:56:27.823Z,20.50
2018-05-25T17:58:58.013Z,20.50
2018-05-25T18:01:27.708Z,20.50
2018-05-25T18:03:57.591Z,20.50
2018-05-25T18:06:27.427Z,20.50
2018-05-25T18:08:57.045Z,20.50
2018-05-25T18:11:28.059Z,20.50
2018-05-25T18:13:58.286Z,20.50
2018-05-25T18:16:27.734Z,20.50
2018-05-25T18:18:57.959Z,20.40
2018-05-25T18:21:27.598Z,20.40
2018-05-25T18:23:57.271Z,20.40
2018-05-25T18:26:25.661Z,20.30
2018-05-25T18:28:54.851Z,20.20
2018-05-25T18:31:24.520Z,20.20
2018-05-25T18:33:53.707Z,20.20
2018-05-25T18:36:22.377Z,20.10
2018-05-25T18:38:51.293Z,20.10
2018-05-25T18:41:20.286Z,20.00
2018-05-25T18:43:49.128Z,20.00
2018-05-25T18:46:18.413Z,20.00
2018-05-25T18:48:47.159Z,19.90
2018-05-25T18:51:17.454Z,19.80
2018-05-25T18:56:48.104Z,19.70
2018-05-25T18:59:16.723Z,19.60
2018-05-25T19:01:45.553Z,19.60
2018-05-25T19:04:14.762Z,19.40
2018-05-25T19:06:45.221Z,19.40
2018-05-25T19:09:13.985Z,19.30
2018-05-25T19:11:42.836Z,19.30
2018-05-25T19:14:11.875Z,19.20
2018-05-25T19:16:40.794Z,19.20
2018-05-25T19:19:10.586Z,19.10
2018-05-25T19:21:41.029Z,19.00
2018-05-25T19:24:09.921Z,19.00
2018-05-25T19:26:38.670Z,19.00
2018-05-25T19:29:07.497Z,19.00
2018-05-25T19:31:36.184Z,18.90
2018-05-25T19:34:04.590Z,18.90
2018-05-25T19:36:33.499Z,18.90
2018-05-25T19:39:03.072Z,18.80
2018-05-25T19:41:33.121Z,18.80
2018-05-25T19:44:02.307Z,18.70
2018-05-25T19:46:30.859Z,18.60
2018-05-25T19:48:59.812Z,18.60
2018-05-25T19:51:28.444Z,18.60
2018-05-25T19:53:56.913Z,18.60
2018-05-25T19:56:25.457Z,18.50
2018-05-25T19:58:53.968Z,18.50
2018-05-25T20:01:22.386Z,18.40
2018-05-25T20:03:51.227Z,18.50
2018-05-25T20:06:19.965Z,18.40
2018-05-25T20:08:49.537Z,18.30
2018-05-25T20:11:19.175Z,18.30
2018-05-25T20:13:49.105Z,18.20
2018-05-25T20:16:17.650Z,18.20
2018-05-25T20:18:46.171Z,18.20
2018-05-25T20:21:15.608Z,18.10
2018-05-25T20:23:43.989Z,18.10
2018-05-25T20:26:12.512Z,18.10
2018-05-25T20:28:41.052Z,18.00
2018-05-25T20:31:09.620Z,18.00
2018-05-25T20:33:38.205Z,17.90
2018-05-25T20:36:06.605Z,17.80
2018-05-25T20:38:35.198Z,17.80
2018-05-25T20:41:03.581Z,17.70
2018-05-25T20:43:32.124Z,17.70
2018-05-25T20:46:01.689Z,17.70
2018-05-25T20:48:30.072Z,17.70
2018-05-25T20:50:58.486Z,17.70
2018-05-25T20:53:27.105Z,17.70
2018-05-25T20:55:55.897Z,17.70
2018-05-25T20:58:24.289Z,17.70
2018-05-25T21:00:52.732Z,17.60
2018-05-25T21:03:21.173Z,17.60
2018-05-25T21:05:50.308Z,17.40
2018-05-25T21:08:19.323Z,17.40
2018-05-25T21:11:10.073Z,17.40
2018-05-25T21:14:06.316Z,17.40
2018-05-25T21:22:39.210Z,17.20
2018-05-25T21:25:15.819Z,17.20
2018-05-25T21:27:57.034Z,17.10
2018-05-25T21:30:41.865Z,17.10
2018-05-25T21:33:16.635Z,17.10
2018-05-25T21:35:58.659Z,17.00
2018-05-25T21:38:34.053Z,17.00
2018-05-25T21:41:11.390Z,16.90
2018-05-25T21:43:50.598Z,16.90
2018-05-25T21:46:27.500Z,16.90
2018-05-25T21:49:06.561Z,16.80
2018-05-25T21:51:44.248Z,16.80
2018-05-25T21:54:24.016Z,16.80
2018-05-25T21:57:01.615Z,16.80
2018-05-25T21:59:38.147Z,16.70
2018-05-25T22:02:22.491Z,16.70
2018-05-25T22:05:12.839Z,16.70
2018-05-25T22:07:54.836Z,16.60
2018-05-25T22:10:33.803Z,16.60
2018-05-25T22:13:17.544Z,16.60
2018-05-25T22:15:56.585Z,16.60
2018-05-25T22:18:30.740Z,16.60
2018-05-25T22:21:13.406Z,16.60
2018-05-25T22:23:48.577Z,16.60
2018-05-25T22:26:23.943Z,16.60
2018-05-25T22:28:59.904Z,16.60
2018-05-25T22:31:40.596Z,16.50
2018-05-25T22:34:30.853Z,16.40
2018-05-25T22:37:15.492Z,16.40
2018-05-25T22:40:00.759Z,16.30
2018-05-25T22:42:57.322Z,16.20
2018-05-25T22:45:52.697Z,16.20
2018-05-25T22:48:46.761Z,16.20
2018-05-25T22:51:40.975Z,16.10
2018-05-25T22:57:38.909Z,16.00
2018-05-25T23:00:23.054Z,16.00
2018-05-25T23:03:04.590Z,16.00
2018-05-25T23:11:55.468Z,16.00
2018-05-25T23:14:48.077Z,16.00
2018-05-25T23:17:22.454Z,15.90
2018-05-25T23:19:51.034Z,15.90
2018-05-25T23:22:19.429Z,15.90
2018-05-25T23:24:47.836Z,15.90
2018-05-25T23:27:16.246Z,15.80
2018-05-25T23:29:44.836Z,15.80
2018-05-25T23:32:13.241Z,15.80
2018-05-25T23:34:41.642Z,15.70
2018-05-25T23:37:10.398Z,15.70
2018-05-25T23:39:39.586Z,15.60
2018-05-25T23:42:07.961Z,15.60
2018-05-25T23:44:36.369Z,15.60
2018-05-25T23:47:05.537Z,15.50
2018-05-25T23:49:33.945Z,15.50
2018-05-25T23:52:02.329Z,15.50
2018-05-25T23:54:31.797Z,15.40
2018-05-25T23:57:00.178Z,15.40
2018-05-25T23:59:28.561Z,15.40
